createdAt,value
2016-12-12T00:00:52.087Z,27.98
2016-12-12T00:01:52.141Z,28
2016-12-12T00:02:52.710Z,28.08
2016-12-12T00:03:52.155Z,28.19
2016-12-12T00:04:52.158Z,28.28
2016-12-12T00:05:52.477Z,27.98
2016-12-12T00:06:52.121Z,27.98
2016-12-12T00:07:52.177Z,28.08
2016-12-12T00:08:52.131Z,27.98
2016-12-12T00:09:52.503Z,27.89
2016-12-12T00:10:52.460Z,27.89
2016-12-12T00:11:52.451Z,28.08
2016-12-12T00:12:52.206Z,27.98
2016-12-12T00:13:52.473Z,28.18
2016-12-12T00:14:52.529Z,27.89
2016-12-12T00:15:52.488Z,27.98
2016-12-12T00:16:52.492Z,27.98
2016-12-12T00:17:52.548Z,27.98
2016-12-12T00:18:52.553Z,28.18
2016-12-12T00:19:52.297Z,28.18
2016-12-12T00:20:52.542Z,27.8
2016-12-12T00:21:52.521Z,27.89
2016-12-12T00:22:52.267Z,27.98
2016-12-12T00:23:52.633Z,27.89
2016-12-12T00:24:52.544Z,27.98
2016-12-12T00:25:52.544Z,27.98
2016-12-12T00:26:52.238Z,27.98
2016-12-12T00:27:53.298Z,27.98
2016-12-12T00:28:52.300Z,27.89
2016-12-12T00:29:52.255Z,27.98
2016-12-12T00:30:52.263Z,27.98
2016-12-12T00:31:52.279Z,27.98
2016-12-12T00:32:52.588Z,27.89
2016-12-12T00:33:52.890Z,27.89
2016-12-12T00:34:52.652Z,27.98
2016-12-12T00:35:52.606Z,27.6
2016-12-12T00:36:52.295Z,27.98
2016-12-12T00:37:52.352Z,27.89
2016-12-12T00:38:52.671Z,27.98
2016-12-12T00:39:52.314Z,27.89
2016-12-12T00:40:52.634Z,27.98
2016-12-12T00:41:52.686Z,27.89
2016-12-12T00:42:52.645Z,27.89
2016-12-12T00:43:52.703Z,27.8
2016-12-12T00:44:52.660Z,27.98
2016-12-12T00:45:52.348Z,27.89
2016-12-12T00:46:52.667Z,27.98
2016-12-12T00:47:52.727Z,28.08
2016-12-12T00:48:52.367Z,27.98
2016-12-12T00:49:52.420Z,27.7
2016-12-12T00:50:52.741Z,27.98
2016-12-12T00:51:52.395Z,27.89
2016-12-12T00:52:52.489Z,27.89
2016-12-12T00:53:52.707Z,27.7
2016-12-12T00:54:52.738Z,27.7
2016-12-12T00:55:52.723Z,27.89
2016-12-12T00:56:52.727Z,27.7
2016-12-12T00:58:07.349Z,27.71
2016-12-12T00:58:52.429Z,27.7
2016-12-12T00:59:52.743Z,27.7
2016-12-12T01:00:52.750Z,27.7
2016-12-12T01:01:52.444Z,27.7
2016-12-12T01:02:52.464Z,27.7
2016-12-12T01:03:52.458Z,27.7
2016-12-12T01:04:52.462Z,27.8
2016-12-12T01:05:52.469Z,27.6
2016-12-12T01:06:52.783Z,27.6
2016-12-12T01:07:52.841Z,27.7
2016-12-12T01:08:52.846Z,27.7
2016-12-12T01:09:52.807Z,27.7
2016-12-12T01:10:52.863Z,27.98
2016-12-12T01:11:52.914Z,27.98
2016-12-12T01:12:52.512Z,27.6
2016-12-12T01:13:52.563Z,27.7
2016-12-12T01:14:52.519Z,27.7
2016-12-12T01:15:52.526Z,27.23
2016-12-12T01:16:52.896Z,28
2016-12-12T01:17:52.880Z,27.22
2016-12-12T01:18:52.906Z,27.8
2016-12-12T01:19:52.550Z,27.89
2016-12-12T01:20:52.917Z,27.6
2016-12-12T01:21:52.872Z,27.8
2016-12-12T01:22:52.567Z,27.7
2016-12-12T01:23:52.573Z,27.7
2016-12-12T01:24:52.891Z,27.7
2016-12-12T01:25:52.898Z,27.7
2016-12-12T01:26:52.641Z,27.7
2016-12-12T01:28:07.474Z,27.8
2016-12-12T01:28:52.963Z,27.6
2016-12-12T01:29:52.608Z,27.7
2016-12-12T01:30:52.944Z,27.7
2016-12-12T01:31:52.932Z,27.6
2016-12-12T01:32:52.935Z,27.6
2016-12-12T01:33:52.628Z,27.7
2016-12-12T01:34:52.637Z,27.7
2016-12-12T01:35:52.692Z,27.6
2016-12-12T01:36:52.648Z,27.98
2016-12-12T01:37:52.967Z,27.8
2016-12-12T01:38:52.711Z,27.8
2016-12-12T01:39:53.029Z,27.6
2016-12-12T01:40:52.823Z,27.7
2016-12-12T01:41:52.675Z,27.8
2016-12-12T01:42:52.685Z,27.8
2016-12-12T01:43:53.001Z,27.6
2016-12-12T01:44:53.006Z,27.7
2016-12-12T01:45:53.041Z,27.8
2016-12-12T01:46:53.021Z,27.7
2016-12-12T01:47:53.073Z,27.8
2016-12-12T01:48:53.030Z,27.31
2016-12-12T01:49:53.388Z,27.8
2016-12-12T01:50:53.044Z,27.5
2016-12-12T01:51:53.049Z,27.7
2016-12-12T01:52:53.101Z,27.6
2016-12-12T01:53:53.062Z,27.98
2016-12-12T01:54:52.752Z,27.89
2016-12-12T01:55:53.073Z,27.8
2016-12-12T01:56:52.765Z,27.8
2016-12-12T01:58:53.089Z,27.6
2016-12-12T01:59:52.780Z,27.8
2016-12-12T02:00:52.786Z,27.8
2016-12-12T02:01:53.103Z,27.7
2016-12-12T02:02:53.163Z,27.7
2016-12-12T02:03:53.117Z,27.7
2016-12-12T02:04:52.964Z,27.7
2016-12-12T02:05:53.128Z,27.8
2016-12-12T02:06:52.822Z,27.6
2016-12-12T02:07:52.828Z,27.8
2016-12-12T02:08:52.835Z,27.8
2016-12-12T02:09:52.840Z,27.7
2016-12-12T02:10:52.844Z,27.89
2016-12-12T02:11:52.901Z,27.8
2016-12-12T02:12:52.911Z,27.8
2016-12-12T02:13:52.863Z,27.8
2016-12-12T02:14:52.918Z,27.89
2016-12-12T02:15:53.190Z,27.8
2016-12-12T02:16:53.193Z,27.89
2016-12-12T02:17:52.887Z,27.89
2016-12-12T02:18:53.205Z,27.89
2016-12-12T02:19:52.898Z,27.5
2016-12-12T02:20:53.215Z,27.6
2016-12-12T02:21:53.329Z,27.89
2016-12-12T02:22:53.226Z,27.8
2016-12-12T02:23:53.231Z,27.5
2016-12-12T02:24:52.977Z,27.5
2016-12-12T02:25:52.932Z,27.5
2016-12-12T02:26:52.936Z,27.22
2016-12-12T02:27:53.257Z,27.7
2016-12-12T02:28:53.054Z,27.8
2016-12-12T02:29:52.952Z,27.5
2016-12-12T02:30:53.324Z,27.7
2016-12-12T02:31:52.966Z,26.92
2016-12-12T02:32:53.285Z,27.6
2016-12-12T02:33:53.029Z,27.03
2016-12-12T02:34:53.298Z,27.61
2016-12-12T02:35:53.041Z,27.71
2016-12-12T02:36:52.998Z,27.6
2016-12-12T02:37:53.322Z,27.6
2016-12-12T02:38:53.323Z,27.02
2016-12-12T02:39:53.427Z,27.81
2016-12-12T02:40:53.069Z,27.5
2016-12-12T02:41:53.389Z,27.8
2016-12-12T02:42:53.031Z,27.6
2016-12-12T02:43:53.351Z,27.5
2016-12-12T02:44:53.359Z,27.6
2016-12-12T02:45:53.098Z,27.8
2016-12-12T02:46:53.367Z,27.12
2016-12-12T02:47:53.377Z,27.81
2016-12-12T02:48:53.380Z,27.71
2016-12-12T02:49:53.071Z,27.12
2016-12-12T02:50:53.391Z,27.71
2016-12-12T02:51:53.395Z,27.13
2016-12-12T02:52:53.402Z,27.6
2016-12-12T02:53:53.406Z,27.8
2016-12-12T02:54:53.414Z,27.71
2016-12-12T02:55:53.423Z,27.81
2016-12-12T02:56:53.474Z,27.81
2016-12-12T02:57:53.482Z,27.7
2016-12-12T02:58:53.437Z,27.7
2016-12-12T02:59:53.144Z,27.51
2016-12-12T03:00:53.450Z,27.6
2016-12-12T03:01:53.555Z,27.6
2016-12-12T03:02:53.146Z,27.6
2016-12-12T03:03:53.153Z,27.6
2016-12-12T03:04:53.471Z,27.02
2016-12-12T03:05:53.477Z,27.89
2016-12-12T03:06:53.484Z,27.02
2016-12-12T03:07:53.176Z,27.6
2016-12-12T03:08:53.496Z,26.92
2016-12-12T03:09:53.553Z,27.7
2016-12-12T03:10:53.195Z,27.8
2016-12-12T03:11:53.201Z,27.8
2016-12-12T03:12:53.208Z,27.8
2016-12-12T03:13:53.525Z,27.12
2016-12-12T03:14:53.532Z,27.02
2016-12-12T03:15:53.535Z,27.12
2016-12-12T03:16:53.227Z,27.5
2016-12-12T03:17:53.545Z,27.5
2016-12-12T03:18:53.239Z,26.92
2016-12-12T03:19:53.608Z,26.92
2016-12-12T03:20:53.253Z,27.6
2016-12-12T03:21:53.570Z,27.8
2016-12-12T03:22:53.262Z,27.7
2016-12-12T03:23:53.581Z,27.7
2016-12-12T03:24:53.591Z,27.7
2016-12-12T03:25:53.592Z,26.92
2016-12-12T03:26:53.599Z,27.7
2016-12-12T03:28:08.171Z,27.6
2016-12-12T03:28:53.612Z,26.92
2016-12-12T03:29:53.363Z,27.6
2016-12-12T03:30:53.364Z,27.6
2016-12-12T03:31:53.315Z,27.8
2016-12-12T03:32:53.321Z,26.92
2016-12-12T03:33:53.329Z,27.7
2016-12-12T03:34:53.332Z,27.8
2016-12-12T03:35:53.703Z,27.6
2016-12-12T03:36:53.707Z,27.6
2016-12-12T03:37:53.664Z,27.4
2016-12-12T03:38:53.666Z,27.6
2016-12-12T03:39:53.726Z,27.6
2016-12-12T03:40:53.417Z,27.8
2016-12-12T03:41:53.373Z,27.7
2016-12-12T03:42:53.379Z,27.5
2016-12-12T03:43:53.697Z,27.12
2016-12-12T03:44:53.755Z,27.8
2016-12-12T03:45:53.445Z,27.6
2016-12-12T03:46:53.453Z,26.92
2016-12-12T03:47:53.724Z,27.8
2016-12-12T03:48:53.412Z,27.6
2016-12-12T03:49:53.735Z,27.7
2016-12-12T03:50:53.738Z,27.5
2016-12-12T03:51:53.433Z,27.5
2016-12-12T03:52:53.750Z,27.42
2016-12-12T03:53:53.491Z,27.61
2016-12-12T03:54:53.762Z,27.71
2016-12-12T03:55:53.456Z,27.6
2016-12-12T03:56:53.463Z,27.6
2016-12-12T03:58:08.346Z,27.6
2016-12-12T03:58:53.786Z,27.42
2016-12-12T03:59:53.793Z,27.6
2016-12-12T04:00:53.796Z,27.61
2016-12-12T04:01:53.801Z,27.71
2016-12-12T04:02:53.805Z,27.51
2016-12-12T04:03:53.554Z,27.5
2016-12-12T04:04:53.507Z,27.61
2016-12-12T04:05:53.826Z,27.6
2016-12-12T04:06:53.830Z,27.6
2016-12-12T04:07:53.839Z,27.51
2016-12-12T04:08:53.532Z,27.6
2016-12-12T04:09:53.899Z,27.6
2016-12-12T04:10:53.857Z,27.71
2016-12-12T04:11:53.863Z,27.61
2016-12-12T04:12:53.556Z,27.5
2016-12-12T04:13:53.882Z,27.22
2016-12-12T04:14:53.615Z,27.6
2016-12-12T04:15:53.620Z,27.51
2016-12-12T04:16:53.579Z,27.61
2016-12-12T04:17:53.894Z,27.31
2016-12-12T04:18:53.591Z,27.7
2016-12-12T04:19:53.596Z,27.22
2016-12-12T04:20:53.965Z,27.4
2016-12-12T04:21:53.916Z,27.5
2016-12-12T04:22:53.926Z,27.61
2016-12-12T04:23:53.982Z,27.7
2016-12-12T04:24:53.628Z,27.61
2016-12-12T04:25:53.629Z,27.61
2016-12-12T04:26:53.949Z,27.6
2016-12-12T04:27:53.954Z,27.6
2016-12-12T04:28:53.957Z,27.5
2016-12-12T04:29:53.656Z,27.7
2016-12-12T04:30:53.660Z,27.7
2016-12-12T04:31:53.975Z,27.7
2016-12-12T04:32:53.718Z,27.6
2016-12-12T04:33:53.677Z,27.5
2016-12-12T04:34:53.679Z,27.5
2016-12-12T04:35:53.739Z,27.5
2016-12-12T04:36:53.793Z,27.61
2016-12-12T04:37:54.066Z,27.6
2016-12-12T04:38:53.703Z,27.6
2016-12-12T04:39:53.759Z,27.6
2016-12-12T04:40:54.077Z,27.5
2016-12-12T04:41:54.035Z,27.6
2016-12-12T04:42:54.039Z,27.5
2016-12-12T04:43:54.042Z,27.6
2016-12-12T04:44:53.739Z,27.6
2016-12-12T04:45:53.744Z,27.6
2016-12-12T04:46:53.805Z,27.5
2016-12-12T04:47:53.805Z,27.6
2016-12-12T04:48:54.077Z,27.7
2016-12-12T04:49:54.076Z,27.5
2016-12-12T04:50:54.086Z,27.6
2016-12-12T04:51:53.778Z,27.5
2016-12-12T04:52:53.783Z,27.5
2016-12-12T04:53:53.790Z,27.6
2016-12-12T04:54:54.110Z,27.6
2016-12-12T04:55:53.799Z,27.4
2016-12-12T04:56:54.119Z,27.6
2016-12-12T04:57:54.124Z,27.5
2016-12-12T04:58:53.867Z,27.7
2016-12-12T04:59:54.188Z,27.8
2016-12-12T05:00:54.144Z,27.5
2016-12-12T05:01:54.146Z,27.5
2016-12-12T05:02:53.847Z,27.6
2016-12-12T05:03:54.162Z,27.5
2016-12-12T05:04:54.218Z,27.7
2016-12-12T05:05:53.906Z,27.7
2016-12-12T05:06:53.864Z,27.7
2016-12-12T05:07:53.873Z,27.7
2016-12-12T05:08:54.186Z,27.33
2016-12-12T05:09:54.244Z,27.23
2016-12-12T05:10:54.200Z,27.31
2016-12-12T05:11:54.255Z,27.31
2016-12-12T05:12:54.214Z,27.4
2016-12-12T05:13:53.905Z,27.61
2016-12-12T05:14:53.912Z,27.5
2016-12-12T05:15:53.964Z,27.6
2016-12-12T05:16:53.970Z,27.31
2016-12-12T05:17:53.927Z,27.5
2016-12-12T05:18:54.248Z,27.5
2016-12-12T05:19:53.940Z,27.22
2016-12-12T05:20:53.995Z,27.5
2016-12-12T05:21:54.314Z,27.31
2016-12-12T05:22:54.268Z,27.6
2016-12-12T05:23:54.278Z,27.5
2016-12-12T05:24:53.969Z,27.6
2016-12-12T05:25:54.287Z,27.22
2016-12-12T05:26:53.981Z,27.31
2016-12-12T05:27:53.986Z,27.31
2016-12-12T05:28:54.043Z,27.5
2016-12-12T05:29:53.998Z,27.33
2016-12-12T05:30:54.055Z,27.6
2016-12-12T05:31:54.325Z,27.4
2016-12-12T05:32:54.019Z,27.4
2016-12-12T05:33:54.020Z,27.61
2016-12-12T05:34:54.392Z,27.23
2016-12-12T05:35:54.344Z,27.23
2016-12-12T05:36:54.353Z,27.4
2016-12-12T05:37:54.796Z,27.33
2016-12-12T05:38:54.102Z,27.31
2016-12-12T05:39:54.369Z,27.33
2016-12-12T05:40:54.062Z,27.42
2016-12-12T05:41:54.431Z,27.33
2016-12-12T05:42:54.443Z,27.42
2016-12-12T05:43:54.080Z,27.61
2016-12-12T05:44:54.450Z,27.42
2016-12-12T05:45:54.405Z,27.5
2016-12-12T05:46:54.410Z,27.51
2016-12-12T05:47:54.466Z,27.4
2016-12-12T05:48:54.109Z,27.31
2016-12-12T05:49:54.428Z,27.33
2016-12-12T05:50:54.176Z,27.31
2016-12-12T05:51:54.126Z,27.31
2016-12-12T05:52:54.447Z,27.33
2016-12-12T05:53:54.500Z,27.5
2016-12-12T05:54:54.198Z,27.42
2016-12-12T05:55:54.150Z,27.23
2016-12-12T05:56:54.466Z,27.31
2016-12-12T05:57:54.163Z,27.42
2016-12-12T05:58:54.482Z,27.31
2016-12-12T05:59:54.536Z,27.42
2016-12-12T06:00:54.495Z,27.31
2016-12-12T06:01:54.237Z,27.4
2016-12-12T06:02:54.505Z,27.5
2016-12-12T06:03:54.511Z,27.6
2016-12-12T06:04:54.568Z,27.5
2016-12-12T06:05:54.524Z,27.5
2016-12-12T06:06:54.226Z,27.31
2016-12-12T06:07:54.221Z,27.22
2016-12-12T06:08:54.640Z,27.5
2016-12-12T06:09:54.594Z,27.8
2016-12-12T06:10:54.236Z,27.31
2016-12-12T06:11:54.555Z,27.5
2016-12-12T06:12:54.576Z,27.4
2016-12-12T06:13:54.255Z,27.4
2016-12-12T06:14:54.625Z,27.42
2016-12-12T06:15:54.324Z,27.31
2016-12-12T06:16:54.590Z,27.5
2016-12-12T06:17:54.281Z,27.31
2016-12-12T06:18:54.597Z,27.61
2016-12-12T06:19:54.602Z,27.4
2016-12-12T06:20:54.297Z,27.61
2016-12-12T06:21:54.667Z,27.31
2016-12-12T06:22:54.308Z,27.22
2016-12-12T06:23:54.362Z,27.5
2016-12-12T06:24:54.332Z,27.22
2016-12-12T06:25:54.328Z,27.5
2016-12-12T06:26:54.647Z,27.31
2016-12-12T06:28:09.217Z,27.31
2016-12-12T06:28:54.344Z,27.7
2016-12-12T06:29:54.716Z,27.31
2016-12-12T06:30:54.355Z,27.5
2016-12-12T06:31:54.661Z,27.22
2016-12-12T06:32:54.367Z,27.5
2016-12-12T06:33:54.688Z,27.6
2016-12-12T06:34:54.690Z,27.4
2016-12-12T06:35:54.695Z,27.31
2016-12-12T06:36:54.753Z,27.5
2016-12-12T06:37:54.709Z,27.4
2016-12-12T06:38:54.729Z,27.4
2016-12-12T06:39:54.721Z,27.4
2016-12-12T06:40:54.731Z,27.22
2016-12-12T06:41:54.733Z,27.22
2016-12-12T06:42:54.786Z,27.61
2016-12-12T06:43:54.431Z,27.31
2016-12-12T06:44:54.751Z,27.33
2016-12-12T06:45:54.443Z,27.5
2016-12-12T06:46:54.760Z,27.31
2016-12-12T06:47:54.504Z,27.5
2016-12-12T06:48:54.462Z,27.22
2016-12-12T06:49:54.778Z,27.23
2016-12-12T06:50:54.781Z,27.12
2016-12-12T06:51:54.840Z,27.31
2016-12-12T06:52:54.483Z,27.12
2016-12-12T06:53:54.495Z,27.12
2016-12-12T06:54:54.809Z,27.33
2016-12-12T06:55:54.812Z,27.23
2016-12-12T06:56:54.822Z,27.31
2016-12-12T06:57:54.509Z,27.33
2016-12-12T06:58:54.827Z,27.33
2016-12-12T06:59:54.523Z,27.23
2016-12-12T07:00:54.530Z,27.03
2016-12-12T07:01:54.533Z,27.23
2016-12-12T07:02:54.902Z,27.13
2016-12-12T07:03:54.858Z,27.22
2016-12-12T07:04:54.865Z,27.23
2016-12-12T07:05:54.983Z,27.23
2016-12-12T07:06:54.613Z,27.02
2016-12-12T07:07:54.619Z,27.13
2016-12-12T07:08:54.573Z,27.12
2016-12-12T07:09:54.894Z,27.22
2016-12-12T07:10:54.637Z,27.13
2016-12-12T07:11:54.957Z,27.31
2016-12-12T07:12:54.598Z,27.33
2016-12-12T07:13:54.919Z,27.4
2016-12-12T07:14:54.609Z,27.42
2016-12-12T07:15:55.229Z,27.42
2016-12-12T07:16:54.622Z,27.42
2016-12-12T07:17:54.991Z,27.23
2016-12-12T07:18:54.633Z,27.33
2016-12-12T07:19:54.951Z,27.23
2016-12-12T07:20:54.960Z,27.33
2016-12-12T07:21:55.014Z,27.22
2016-12-12T07:22:54.969Z,27.23
2016-12-12T07:23:54.974Z,27.33
2016-12-12T07:24:54.980Z,27.13
2016-12-12T07:25:55.038Z,27.03
2016-12-12T07:26:55.043Z,26.75
2016-12-12T07:28:09.565Z,26.93
2016-12-12T07:28:54.691Z,26.55
2016-12-12T07:29:55.010Z,26.28
2016-12-12T07:30:54.705Z,26.08
2016-12-12T07:31:54.706Z,25.79
2016-12-12T07:32:54.716Z,25.7
2016-12-12T07:33:55.034Z,25.42
2016-12-12T07:34:55.091Z,25.32
2016-12-12T07:35:54.831Z,25.42
2016-12-12T07:36:55.051Z,25.24
2016-12-12T07:37:54.744Z,24.76
2016-12-12T07:38:55.063Z,24.56
2016-12-12T07:39:54.760Z,24.28
2016-12-12T07:40:55.073Z,24.46
2016-12-12T07:41:55.081Z,24.48
2016-12-12T07:42:55.141Z,23.99
2016-12-12T07:43:54.779Z,23.99
2016-12-12T07:44:54.785Z,24.18
2016-12-12T07:45:54.818Z,23.8
2016-12-12T07:46:55.159Z,23.42
2016-12-12T07:47:55.119Z,23.33
2016-12-12T07:48:55.121Z,23.42
2016-12-12T07:49:54.813Z,23.33
2016-12-12T07:50:54.920Z,23.23
2016-12-12T07:51:55.143Z,23.23
2016-12-12T07:52:55.146Z,23.23
2016-12-12T07:53:54.937Z,23.03
2016-12-12T07:54:54.863Z,22.84
2016-12-12T07:55:55.167Z,23.14
2016-12-12T07:56:55.223Z,23.14
2016-12-12T07:57:57.318Z,23.14
2016-12-12T07:58:55.183Z,23.24
2016-12-12T07:59:54.876Z,23.14
2016-12-12T08:00:54.937Z,23.14
2016-12-12T08:01:55.253Z,22.95
2016-12-12T08:02:54.947Z,22.95
2016-12-12T08:03:54.951Z,23.14
2016-12-12T08:04:54.962Z,23.14
2016-12-12T08:05:54.913Z,23.14
2016-12-12T08:06:54.970Z,23.14
2016-12-12T08:07:55.243Z,23.05
2016-12-12T08:08:55.246Z,23.05
2016-12-12T08:09:55.440Z,23.14
2016-12-12T08:10:54.943Z,22.95
2016-12-12T08:11:55.313Z,22.95
2016-12-12T08:12:55.321Z,22.95
2016-12-12T08:13:55.018Z,23.14
2016-12-12T08:14:55.285Z,23.05
2016-12-12T08:15:55.026Z,23.14
2016-12-12T08:16:54.985Z,22.95
2016-12-12T08:17:55.304Z,23.05
2016-12-12T08:18:54.997Z,23.14
2016-12-12T08:19:55.315Z,22.95
2016-12-12T08:20:55.261Z,23.05
2016-12-12T08:21:55.329Z,22.85
2016-12-12T08:22:55.341Z,23.05
2016-12-12T08:23:55.389Z,22.95
2016-12-12T08:24:55.402Z,23.05
2016-12-12T08:25:55.042Z,22.95
2016-12-12T08:26:55.049Z,23.05
2016-12-12T08:27:55.366Z,23.14
2016-12-12T08:28:55.375Z,23.14
2016-12-12T08:29:55.067Z,22.95
2016-12-12T08:30:55.388Z,23.05
2016-12-12T08:31:55.448Z,22.95
2016-12-12T08:32:55.136Z,23.05
2016-12-12T08:33:55.407Z,23.14
2016-12-12T08:34:55.153Z,23.14
2016-12-12T08:35:55.420Z,23.05
2016-12-12T08:36:55.425Z,23.05
2016-12-12T08:37:55.484Z,22.95
2016-12-12T08:38:55.132Z,23.16
2016-12-12T08:39:55.186Z,23.06
2016-12-12T08:40:55.193Z,23.05
2016-12-12T08:41:55.196Z,23.06
2016-12-12T08:42:55.154Z,23.05
2016-12-12T08:43:55.473Z,23.06
2016-12-12T08:44:55.268Z,22.95
2016-12-12T08:45:55.536Z,22.96
2016-12-12T08:46:55.182Z,22.95
2016-12-12T08:47:55.551Z,22.96
2016-12-12T08:48:55.294Z,22.67
2016-12-12T08:49:55.515Z,22.96
2016-12-12T08:50:55.208Z,22.67
2016-12-12T08:51:55.530Z,22.77
2016-12-12T08:52:55.272Z,22.77
2016-12-12T08:53:55.543Z,23.06
2016-12-12T08:54:55.237Z,23.06
2016-12-12T08:55:55.557Z,22.67
2016-12-12T08:56:55.563Z,22.86
2016-12-12T08:58:55.575Z,22.77
2016-12-12T08:59:55.319Z,22.67
2016-12-12T09:00:55.274Z,22.77
2016-12-12T09:01:55.283Z,22.96
2016-12-12T09:02:55.649Z,22.77
2016-12-12T09:03:55.708Z,22.77
2016-12-12T09:04:55.303Z,23.16
2016-12-12T09:05:55.309Z,22.96
2016-12-12T09:06:55.628Z,22.96
2016-12-12T09:07:55.635Z,22.86
2016-12-12T09:08:55.331Z,22.96
2016-12-12T09:09:55.335Z,23.06
2016-12-12T09:10:55.705Z,22.96
2016-12-12T09:11:55.351Z,22.67
2016-12-12T09:12:55.357Z,23.06
2016-12-12T09:13:55.366Z,22.77
2016-12-12T09:14:55.683Z,22.96
2016-12-12T09:15:55.430Z,22.77
2016-12-12T09:16:55.714Z,22.96
2016-12-12T09:17:55.755Z,22.86
2016-12-12T09:18:55.712Z,22.67
2016-12-12T09:19:55.717Z,23.06
2016-12-12T09:20:55.774Z,22.86
2016-12-12T09:21:55.730Z,22.96
2016-12-12T09:22:55.424Z,22.86
2016-12-12T09:23:55.793Z,22.96
2016-12-12T09:24:55.466Z,22.96
2016-12-12T09:25:55.760Z,22.86
2016-12-12T09:26:55.499Z,22.96
2016-12-12T09:27:55.770Z,22.86
2016-12-12T09:28:55.465Z,22.67
2016-12-12T09:29:55.521Z,22.86
2016-12-12T09:30:55.792Z,23.06
2016-12-12T09:31:55.796Z,22.86
2016-12-12T09:32:55.804Z,23.06
2016-12-12T09:33:55.497Z,22.96
2016-12-12T09:34:55.817Z,22.96
2016-12-12T09:35:55.873Z,22.77
2016-12-12T09:36:55.834Z,22.86
2016-12-12T09:37:55.939Z,22.86
2016-12-12T09:38:55.531Z,22.96
2016-12-12T09:39:55.538Z,22.96
2016-12-12T09:40:55.598Z,22.77
2016-12-12T09:41:55.553Z,23.06
2016-12-12T09:42:56.170Z,22.96
2016-12-12T09:43:55.876Z,22.67
2016-12-12T09:44:55.886Z,22.86
2016-12-12T09:45:55.892Z,22.96
2016-12-12T09:46:55.585Z,22.96
2016-12-12T09:47:55.693Z,22.96
2016-12-12T09:48:55.965Z,22.86
2016-12-12T09:49:55.921Z,22.86
2016-12-12T09:50:55.976Z,22.39
2016-12-12T09:51:55.935Z,22.68
2016-12-12T09:52:55.989Z,22.3
2016-12-12T09:53:55.997Z,22.2
2016-12-12T09:54:55.955Z,22.48
2016-12-12T09:55:55.646Z,22.28
2016-12-12T09:56:55.967Z,22.67
2016-12-12T09:57:56.272Z,22.57
2016-12-12T09:58:55.720Z,23.07
2016-12-12T09:59:55.990Z,23.06
2016-12-12T10:00:55.681Z,22.58
2016-12-12T10:01:56.004Z,22.78
2016-12-12T10:02:55.696Z,22.86
2016-12-12T10:03:56.014Z,22.78
2016-12-12T10:04:55.759Z,22.86
2016-12-12T10:05:56.130Z,22.78
2016-12-12T10:06:55.725Z,22.67
2016-12-12T10:07:56.141Z,22.86
2016-12-12T10:08:55.745Z,23.06
2016-12-12T10:09:56.107Z,22.96
2016-12-12T10:10:55.799Z,23.16
2016-12-12T10:11:56.069Z,22.77
2016-12-12T10:12:56.128Z,23.06
2016-12-12T10:13:56.133Z,22.96
2016-12-12T10:14:56.089Z,23.06
2016-12-12T10:15:55.784Z,22.67
2016-12-12T10:16:55.792Z,23.16
2016-12-12T10:17:56.209Z,23.16
2016-12-12T10:18:55.853Z,22.67
2016-12-12T10:19:56.122Z,23.16
2016-12-12T10:20:56.182Z,22.77
2016-12-12T10:21:56.188Z,23.06
2016-12-12T10:22:55.883Z,22.96
2016-12-12T10:23:56.202Z,22.96
2016-12-12T10:24:55.848Z,22.67
2016-12-12T10:25:55.854Z,22.68
2016-12-12T10:26:56.172Z,23.06
2016-12-12T10:27:56.230Z,22.96
2016-12-12T10:28:56.218Z,22.96
2016-12-12T10:29:55.928Z,23.06
2016-12-12T10:30:55.885Z,23.06
2016-12-12T10:31:56.256Z,22.96
2016-12-12T10:32:56.264Z,23.16
2016-12-12T10:33:56.220Z,23.06
2016-12-12T10:34:55.915Z,22.77
2016-12-12T10:35:56.233Z,22.68
2016-12-12T10:36:56.238Z,22.97
2016-12-12T10:37:55.934Z,23.06
2016-12-12T10:38:56.255Z,22.96
2016-12-12T10:39:55.951Z,23.06
2016-12-12T10:40:55.957Z,22.96
2016-12-12T10:41:55.961Z,22.96
2016-12-12T10:42:55.968Z,22.86
2016-12-12T10:43:56.289Z,22.96
2016-12-12T10:44:56.346Z,22.96
2016-12-12T10:45:55.987Z,22.86
2016-12-12T10:46:56.320Z,22.58
2016-12-12T10:47:56.001Z,22.58
2016-12-12T10:48:56.059Z,22.88
2016-12-12T10:49:56.326Z,23.16
2016-12-12T10:50:56.388Z,22.96
2016-12-12T10:51:56.341Z,23.06
2016-12-12T10:52:56.139Z,23.06
2016-12-12T10:53:56.095Z,23.06
2016-12-12T10:54:56.364Z,23.06
2016-12-12T10:55:56.371Z,22.96
2016-12-12T10:56:56.425Z,23.06
2016-12-12T10:57:56.522Z,22.96
2016-12-12T10:58:56.396Z,23.06
2016-12-12T10:59:56.852Z,23.06
2016-12-12T11:00:56.142Z,23.44
2016-12-12T11:01:56.100Z,22.86
2016-12-12T11:02:56.104Z,22.96
2016-12-12T11:03:56.162Z,22.77
2016-12-12T11:04:56.431Z,22.86
2016-12-12T11:05:56.442Z,23.44
2016-12-12T11:06:56.181Z,23.16
2016-12-12T11:07:56.138Z,23.44
2016-12-12T11:08:56.144Z,23.16
2016-12-12T11:09:56.154Z,23.54
2016-12-12T11:10:56.523Z,23.54
2016-12-12T11:11:56.478Z,23.54
2016-12-12T11:12:56.174Z,23.44
2016-12-12T11:13:56.492Z,23.25
2016-12-12T11:14:56.239Z,23.44
2016-12-12T11:15:56.192Z,23.35
2016-12-12T11:16:56.513Z,23.44
2016-12-12T11:17:56.570Z,23.16
2016-12-12T11:18:56.262Z,23.25
2016-12-12T11:19:56.534Z,23.35
2016-12-12T11:20:56.539Z,23.16
2016-12-12T11:21:56.546Z,23.06
2016-12-12T11:22:56.612Z,22.96
2016-12-12T11:23:56.248Z,23.16
2016-12-12T11:24:56.566Z,23.06
2016-12-12T11:25:56.575Z,23.35
2016-12-12T11:26:56.318Z,23.44
2016-12-12T11:27:56.688Z,23.06
2016-12-12T11:28:56.281Z,23.35
2016-12-12T11:29:56.288Z,23.16
2016-12-12T11:30:56.659Z,23.35
2016-12-12T11:31:56.304Z,23.16
2016-12-12T11:32:56.309Z,22.96
2016-12-12T11:33:56.315Z,22.96
2016-12-12T11:34:56.371Z,23.54
2016-12-12T11:35:56.327Z,23.16
2016-12-12T11:36:56.334Z,23.35
2016-12-12T11:37:56.655Z,23.64
2016-12-12T11:38:56.711Z,23.35
2016-12-12T11:39:56.767Z,23.64
2016-12-12T11:40:56.413Z,23.16
2016-12-12T11:41:56.422Z,23.35
2016-12-12T11:42:56.375Z,23.35
2016-12-12T11:43:56.698Z,23.25
2016-12-12T11:44:56.392Z,23.16
2016-12-12T11:45:56.761Z,23.16
2016-12-12T11:46:56.765Z,23.44
2016-12-12T11:47:56.723Z,23.16
2016-12-12T11:48:56.419Z,23.35
2016-12-12T11:49:56.741Z,23.35
2016-12-12T11:50:56.432Z,23.25
2016-12-12T11:51:56.750Z,23.25
2016-12-12T11:52:56.755Z,23.16
2016-12-12T11:53:56.792Z,23.35
2016-12-12T11:54:56.770Z,23.35
2016-12-12T11:55:56.517Z,23.16
2016-12-12T11:56:56.837Z,23.16
2016-12-12T11:58:11.407Z,22.96
2016-12-12T11:58:56.799Z,23.06
2016-12-12T11:59:56.500Z,23.35
2016-12-12T12:00:56.812Z,23.25
2016-12-12T12:01:56.505Z,23.16
2016-12-12T12:02:56.563Z,23.06
2016-12-12T12:03:56.523Z,23.74
2016-12-12T12:04:56.889Z,23.64
2016-12-12T12:05:56.847Z,23.35
2016-12-12T12:06:56.879Z,23.16
2016-12-12T12:07:56.868Z,23.44
2016-12-12T12:08:56.554Z,23.35
2016-12-12T12:09:56.662Z,23.16
2016-12-12T12:10:56.882Z,23.44
2016-12-12T12:11:56.942Z,23.25
2016-12-12T12:12:56.893Z,23.25
2016-12-12T12:13:56.639Z,23.44
2016-12-12T12:14:56.959Z,22.86
2016-12-12T12:15:57.014Z,23.44
2016-12-12T12:16:56.926Z,23.16
2016-12-12T12:17:56.930Z,23.06
2016-12-12T12:18:56.935Z,23.54
2016-12-12T12:19:56.994Z,23.16
2016-12-12T12:20:56.636Z,23.44
2016-12-12T12:21:56.694Z,23.54
2016-12-12T12:22:57.013Z,23.54
2016-12-12T12:23:56.710Z,23.16
2016-12-12T12:24:56.977Z,23.16
2016-12-12T12:25:56.871Z,23.35
2016-12-12T12:26:56.728Z,23.46
2016-12-12T12:28:11.713Z,23.16
2016-12-12T12:28:57.652Z,23.25
2016-12-12T12:29:57.009Z,23.16
2016-12-12T12:30:56.705Z,23.06
2016-12-12T12:31:56.819Z,23.06
2016-12-12T12:32:57.182Z,23.16
2016-12-12T12:33:57.086Z,23.54
2016-12-12T12:34:57.144Z,23.44
2016-12-12T12:35:57.100Z,22.96
2016-12-12T12:36:56.744Z,23.06
2016-12-12T12:37:58.464Z,23.16
2016-12-12T12:38:56.859Z,23.46
2016-12-12T12:39:57.125Z,23.44
2016-12-12T12:40:56.834Z,23.25
2016-12-12T12:41:57.589Z,23.46
2016-12-12T12:42:57.099Z,23.16
2016-12-12T12:44:57.112Z,23.36
2016-12-12T12:45:56.855Z,23.36
2016-12-12T12:46:56.811Z,23.26
2016-12-12T12:47:57.471Z,23.26
2016-12-12T12:48:58.988Z,23.75
2016-12-12T12:49:57.195Z,24.23
2016-12-12T12:50:58.140Z,24.04
2016-12-12T12:51:56.845Z,24.13
2016-12-12T12:52:57.187Z,24.04
2016-12-12T12:53:57.574Z,24.43
2016-12-12T12:54:57.017Z,24.43
2016-12-12T12:55:56.873Z,24.43
2016-12-12T12:56:57.841Z,24.13
2016-12-12T12:57:57.299Z,24.23
2016-12-12T12:58:57.258Z,24.62
2016-12-12T12:59:58.252Z,24.23
2016-12-12T13:01:14.737Z,24.23
2016-12-12T13:01:57.532Z,24.52
2016-12-12T13:02:57.284Z,24.23
2016-12-12T13:03:57.489Z,24.62